sensor_id;sensor_type;location;lat;lon;timestamp;P1;durP1;ratioP1;P2;durP2;ratioP2
28822;SDS011;15961;54.678;9.110;2023-07-30T00:01:21;11.02;;;3.95;;
28822;SDS011;15961;54.678;9.110;2023-07-30T00:03:46;7.32;;;4.13;;
28822;SDS011;15961;54.678;9.110;2023-07-30T00:06:11;5.45;;;3.45;;
28822;SDS011;15961;54.678;9.110;2023-07-30T00:08:37;5.55;;;3.78;;
28822;SDS011;15961;54.678;9.110;2023-07-30T00:11:02;5.15;;;3.33;;
28822;SDS011;15961;54.678;9.110;2023-07-30T00:13:27;6.88;;;3.83;;
28822;SDS011;15961;54.678;9.110;2023-07-30T00:15:53;5.55;;;3.50;;
28822;SDS011;15961;54.678;9.110;2023-07-30T00:18:18;6.13;;;3.45;;
28822;SDS011;15961;54.678;9.110;2023-07-30T00:20:43;6.85;;;3.47;;
28822;SDS011;15961;54.678;9.110;2023-07-30T00:23:08;8.35;;;3.90;;
28822;SDS011;15961;54.678;9.110;2023-07-30T00:25:34;10.32;;;3.45;;
28822;SDS011;15961;54.678;9.110;2023-07-30T00:27:59;7.85;;;3.35;;
28822;SDS011;15961;54.678;9.110;2023-07-30T00:30:24;8.82;;;3.60;;
28822;SDS011;15961;54.678;9.110;2023-07-30T00:32:50;5.60;;;3.63;;
28822;SDS011;15961;54.678;9.110;2023-07-30T00:35:15;12.25;;;4.03;;
28822;SDS011;15961;54.678;9.110;2023-07-30T00:37:40;13.75;;;4.72;;
28822;SDS011;15961;54.678;9.110;2023-07-30T00:40:06;6.72;;;3.97;;
28822;SDS011;15961;54.678;9.110;2023-07-30T00:42:31;7.82;;;3.50;;
28822;SDS011;15961;54.678;9.110;2023-07-30T00:44:57;9.27;;;4.82;;
28822;SDS011;15961;54.678;9.110;2023-07-30T00:47:22;5.65;;;3.25;;
28822;SDS011;15961;54.678;9.110;2023-07-30T00:49:48;6.25;;;3.20;;
28822;SDS011;15961;54.678;9.110;2023-07-30T00:52:14;7.85;;;3.85;;
28822;SDS011;15961;54.678;9.110;2023-07-30T00:54:41;7.28;;;3.63;;
28822;SDS011;15961;54.678;9.110;2023-07-30T00:57:06;9.85;;;3.83;;
28822;SDS011;15961;54.678;9.110;2023-07-30T00:59:32;9.43;;;4.05;;
28822;SDS011;15961;54.678;9.110;2023-07-30T01:01:58;10.02;;;3.95;;
28822;SDS011;15961;54.678;9.110;2023-07-30T01:04:24;8.50;;;4.55;;
28822;SDS011;15961;54.678;9.110;2023-07-30T01:06:49;7.85;;;4.30;;
28822;SDS011;15961;54.678;9.110;2023-07-30T01:09:14;10.05;;;5.00;;
28822;SDS011;15961;54.678;9.110;2023-07-30T01:11:40;18.42;;;5.80;;
28822;SDS011;15961;54.678;9.110;2023-07-30T01:14:09;12.95;;;5.65;;
28822;SDS011;15961;54.678;9.110;2023-07-30T01:16:35;13.25;;;5.70;;
28822;SDS011;15961;54.678;9.110;2023-07-30T01:19:00;11.25;;;4.70;;
28822;SDS011;15961;54.678;9.110;2023-07-30T01:21:30;12.23;;;5.75;;
28822;SDS011;15961;54.678;9.110;2023-07-30T01:23:56;12.07;;;5.82;;
28822;SDS011;15961;54.678;9.110;2023-07-30T01:26:22;12.90;;;6.22;;
28822;SDS011;15961;54.678;9.110;2023-07-30T01:28:51;14.85;;;5.57;;
28822;SDS011;15961;54.678;9.110;2023-07-30T01:31:19;10.63;;;5.78;;
28822;SDS011;15961;54.678;9.110;2023-07-30T01:33:46;14.02;;;5.32;;
28822;SDS011;15961;54.678;9.110;2023-07-30T01:36:13;14.75;;;5.40;;
28822;SDS011;15961;54.678;9.110;2023-07-30T01:38:40;10.07;;;4.95;;
28822;SDS011;15961;54.678;9.110;2023-07-30T01:41:05;13.23;;;5.03;;
28822;SDS011;15961;54.678;9.110;2023-07-30T01:43:31;14.52;;;6.63;;
28822;SDS011;15961;54.678;9.110;2023-07-30T01:45:56;12.95;;;5.93;;
28822;SDS011;15961;54.678;9.110;2023-07-30T01:48:21;9.82;;;5.72;;
28822;SDS011;15961;54.678;9.110;2023-07-30T01:50:47;9.43;;;4.85;;
28822;SDS011;15961;54.678;9.110;2023-07-30T01:53:13;9.38;;;4.65;;
28822;SDS011;15961;54.678;9.110;2023-07-30T01:55:39;11.57;;;6.57;;
28822;SDS011;15961;54.678;9.110;2023-07-30T01:58:11;12.43;;;5.10;;
28822;SDS011;15961;54.678;9.110;2023-07-30T02:00:39;13.52;;;4.78;;
28822;SDS011;15961;54.678;9.110;2023-07-30T02:03:05;10.30;;;4.68;;
28822;SDS011;15961;54.678;9.110;2023-07-30T02:05:30;13.98;;;6.03;;
28822;SDS011;15961;54.678;9.110;2023-07-30T02:07:55;10.90;;;5.47;;
28822;SDS011;15961;54.678;9.110;2023-07-30T02:10:24;10.35;;;5.43;;
28822;SDS011;15961;54.678;9.110;2023-07-30T02:12:50;13.23;;;5.07;;
28822;SDS011;15961;54.678;9.110;2023-07-30T02:15:15;14.57;;;5.57;;
28822;SDS011;15961;54.678;9.110;2023-07-30T02:17:41;14.57;;;5.65;;
28822;SDS011;15961;54.678;9.110;2023-07-30T02:20:06;8.18;;;4.70;;
28822;SDS011;15961;54.678;9.110;2023-07-30T02:22:32;12.05;;;4.85;;
28822;SDS011;15961;54.678;9.110;2023-07-30T02:24:57;9.80;;;6.10;;
28822;SDS011;15961;54.678;9.110;2023-07-30T02:27:23;9.88;;;4.72;;
28822;SDS011;15961;54.678;9.110;2023-07-30T02:29:48;10.45;;;4.40;;
28822;SDS011;15961;54.678;9.110;2023-07-30T02:32:13;7.95;;;5.30;;
28822;SDS011;15961;54.678;9.110;2023-07-30T02:34:39;13.80;;;6.30;;
28822;SDS011;15961;54.678;9.110;2023-07-30T02:37:04;16.90;;;7.10;;
28822;SDS011;15961;54.678;9.110;2023-07-30T02:39:29;14.75;;;6.18;;
28822;SDS011;15961;54.678;9.110;2023-07-30T02:41:54;11.98;;;6.30;;
28822;SDS011;15961;54.678;9.110;2023-07-30T02:44:20;16.00;;;6.03;;
28822;SDS011;15961;54.678;9.110;2023-07-30T02:46:45;17.27;;;6.03;;
28822;SDS011;15961;54.678;9.110;2023-07-30T02:49:10;17.15;;;6.35;;
28822;SDS011;15961;54.678;9.110;2023-07-30T02:51:36;15.68;;;5.97;;
28822;SDS011;15961;54.678;9.110;2023-07-30T02:54:03;8.15;;;4.68;;
28822;SDS011;15961;54.678;9.110;2023-07-30T02:56:29;11.57;;;5.57;;
28822;SDS011;15961;54.678;9.110;2023-07-30T02:58:55;14.05;;;5.93;;
28822;SDS011;15961;54.678;9.110;2023-07-30T03:01:20;17.67;;;6.65;;
28822;SDS011;15961;54.678;9.110;2023-07-30T03:03:45;9.93;;;5.68;;
28822;SDS011;15961;54.678;9.110;2023-07-30T03:06:10;14.43;;;6.20;;
28822;SDS011;15961;54.678;9.110;2023-07-30T03:08:36;11.30;;;5.13;;
28822;SDS011;15961;54.678;9.110;2023-07-30T03:11:02;9.25;;;5.13;;
28822;SDS011;15961;54.678;9.110;2023-07-30T03:13:27;14.85;;;5.65;;
28822;SDS011;15961;54.678;9.110;2023-07-30T03:15:52;14.40;;;6.63;;
28822;SDS011;15961;54.678;9.110;2023-07-30T03:18:18;12.70;;;5.60;;
28822;SDS011;15961;54.678;9.110;2023-07-30T03:20:43;15.77;;;5.40;;
28822;SDS011;15961;54.678;9.110;2023-07-30T03:23:08;14.00;;;5.78;;
28822;SDS011;15961;54.678;9.110;2023-07-30T03:25:33;11.90;;;5.43;;
28822;SDS011;15961;54.678;9.110;2023-07-30T03:27:59;11.05;;;5.75;;
28822;SDS011;15961;54.678;9.110;2023-07-30T03:30:24;10.35;;;4.82;;
28822;SDS011;15961;54.678;9.110;2023-07-30T03:32:52;10.50;;;5.80;;
28822;SDS011;15961;54.678;9.110;2023-07-30T03:35:18;12.32;;;6.22;;
28822;SDS011;15961;54.678;9.110;2023-07-30T03:37:44;19.50;;;7.32;;
28822;SDS011;15961;54.678;9.110;2023-07-30T03:40:09;15.57;;;6.93;;
28822;SDS011;15961;54.678;9.110;2023-07-30T03:42:35;15.38;;;5.95;;
28822;SDS011;15961;54.678;9.110;2023-07-30T03:45:00;13.88;;;6.53;;
28822;SDS011;15961;54.678;9.110;2023-07-30T03:47:25;18.30;;;6.50;;
28822;SDS011;15961;54.678;9.110;2023-07-30T03:49:51;13.52;;;6.78;;
28822;SDS011;15961;54.678;9.110;2023-07-30T03:52:16;14.23;;;6.60;;
28822;SDS011;15961;54.678;9.110;2023-07-30T03:54:42;18.23;;;6.55;;
28822;SDS011;15961;54.678;9.110;2023-07-30T03:57:07;12.38;;;6.15;;
28822;SDS011;15961;54.678;9.110;2023-07-30T03:59:33;14.30;;;7.18;;
28822;SDS011;15961;54.678;9.110;2023-07-30T04:01:58;13.30;;;6.53;;
28822;SDS011;15961;54.678;9.110;2023-07-30T04:04:24;14.43;;;6.15;;
28822;SDS011;15961;54.678;9.110;2023-07-30T04:06:49;18.13;;;7.03;;
28822;SDS011;15961;54.678;9.110;2023-07-30T04:09:14;15.63;;;6.43;;
28822;SDS011;15961;54.678;9.110;2023-07-30T04:11:40;15.30;;;6.50;;
28822;SDS011;15961;54.678;9.110;2023-07-30T04:14:05;13.35;;;6.45;;
28822;SDS011;15961;54.678;9.110;2023-07-30T04:16:32;18.13;;;7.45;;
28822;SDS011;15961;54.678;9.110;2023-07-30T04:18:58;20.17;;;6.78;;
28822;SDS011;15961;54.678;9.110;2023-07-30T04:21:23;20.10;;;7.18;;
28822;SDS011;15961;54.678;9.110;2023-07-30T04:23:49;15.20;;;7.07;;
28822;SDS011;15961;54.678;9.110;2023-07-30T04:26:14;21.95;;;7.18;;
28822;SDS011;15961;54.678;9.110;2023-07-30T04:28:39;16.77;;;7.15;;
28822;SDS011;15961;54.678;9.110;2023-07-30T04:31:05;17.50;;;7.80;;
28822;SDS011;15961;54.678;9.110;2023-07-30T04:33:30;18.92;;;7.68;;
28822;SDS011;15961;54.678;9.110;2023-07-30T04:35:55;22.35;;;8.52;;
28822;SDS011;15961;54.678;9.110;2023-07-30T04:38:21;15.02;;;8.45;;
28822;SDS011;15961;54.678;9.110;2023-07-30T04:40:46;17.10;;;7.30;;
28822;SDS011;15961;54.678;9.110;2023-07-30T04:43:11;21.20;;;7.22;;
28822;SDS011;15961;54.678;9.110;2023-07-30T04:45:36;17.50;;;6.65;;
28822;SDS011;15961;54.678;9.110;2023-07-30T04:48:02;17.42;;;6.78;;
28822;SDS011;15961;54.678;9.110;2023-07-30T04:50:27;18.02;;;7.00;;
28822;SDS011;15961;54.678;9.110;2023-07-30T04:52:52;19.92;;;7.10;;
28822;SDS011;15961;54.678;9.110;2023-07-30T04:55:18;17.02;;;6.90;;
28822;SDS011;15961;54.678;9.110;2023-07-30T04:57:43;21.42;;;7.90;;
28822;SDS011;15961;54.678;9.110;2023-07-30T05:00:08;12.35;;;5.93;;
28822;SDS011;15961;54.678;9.110;2023-07-30T05:02:34;23.42;;;8.55;;
28822;SDS011;15961;54.678;9.110;2023-07-30T05:04:59;21.20;;;7.82;;
28822;SDS011;15961;54.678;9.110;2023-07-30T05:07:24;16.55;;;6.63;;
28822;SDS011;15961;54.678;9.110;2023-07-30T05:09:50;18.38;;;7.10;;
28822;SDS011;15961;54.678;9.110;2023-07-30T05:12:15;16.35;;;6.97;;
28822;SDS011;15961;54.678;9.110;2023-07-30T05:14:40;15.88;;;6.75;;
28822;SDS011;15961;54.678;9.110;2023-07-30T05:17:06;19.00;;;7.15;;
28822;SDS011;15961;54.678;9.110;2023-07-30T05:19:31;15.13;;;7.82;;
28822;SDS011;15961;54.678;9.110;2023-07-30T05:21:57;20.02;;;8.32;;
28822;SDS011;15961;54.678;9.110;2023-07-30T05:24:24;21.08;;;8.63;;
28822;SDS011;15961;54.678;9.110;2023-07-30T05:26:49;20.38;;;6.47;;
28822;SDS011;15961;54.678;9.110;2023-07-30T05:29:15;16.33;;;6.80;;
28822;SDS011;15961;54.678;9.110;2023-07-30T05:31:40;16.67;;;7.07;;
28822;SDS011;15961;54.678;9.110;2023-07-30T05:34:05;22.30;;;7.95;;
28822;SDS011;15961;54.678;9.110;2023-07-30T05:36:30;21.83;;;8.50;;
28822;SDS011;15961;54.678;9.110;2023-07-30T05:38:56;16.58;;;6.90;;
28822;SDS011;15961;54.678;9.110;2023-07-30T05:41:21;20.92;;;7.70;;
28822;SDS011;15961;54.678;9.110;2023-07-30T05:43:46;21.52;;;7.97;;
28822;SDS011;15961;54.678;9.110;2023-07-30T05:46:12;24.38;;;7.68;;
28822;SDS011;15961;54.678;9.110;2023-07-30T05:48:37;17.67;;;7.00;;
28822;SDS011;15961;54.678;9.110;2023-07-30T05:51:03;16.05;;;6.30;;
28822;SDS011;15961;54.678;9.110;2023-07-30T05:53:28;13.80;;;7.20;;
28822;SDS011;15961;54.678;9.110;2023-07-30T05:55:54;15.93;;;6.68;;
28822;SDS011;15961;54.678;9.110;2023-07-30T05:58:19;19.90;;;7.47;;
28822;SDS011;15961;54.678;9.110;2023-07-30T06:00:44;18.05;;;6.47;;
28822;SDS011;15961;54.678;9.110;2023-07-30T06:03:10;15.52;;;6.25;;
28822;SDS011;15961;54.678;9.110;2023-07-30T06:05:41;21.35;;;6.25;;
28822;SDS011;15961;54.678;9.110;2023-07-30T06:08:07;12.95;;;5.90;;
28822;SDS011;15961;54.678;9.110;2023-07-30T06:10:35;17.90;;;6.32;;
28822;SDS011;15961;54.678;9.110;2023-07-30T06:13:01;15.70;;;6.47;;
28822;SDS011;15961;54.678;9.110;2023-07-30T06:15:27;17.33;;;6.07;;
28822;SDS011;15961;54.678;9.110;2023-07-30T06:17:53;12.30;;;5.05;;
28822;SDS011;15961;54.678;9.110;2023-07-30T06:20:18;10.57;;;4.55;;
28822;SDS011;15961;54.678;9.110;2023-07-30T06:22:43;14.07;;;5.00;;
28822;SDS011;15961;54.678;9.110;2023-07-30T06:25:08;10.38;;;5.15;;
28822;SDS011;15961;54.678;9.110;2023-07-30T06:27:34;25.63;;;6.00;;
28822;SDS011;15961;54.678;9.110;2023-07-30T06:29:59;12.75;;;4.53;;
28822;SDS011;15961;54.678;9.110;2023-07-30T06:32:24;13.30;;;4.55;;
28822;SDS011;15961;54.678;9.110;2023-07-30T06:34:50;14.70;;;4.53;;
28822;SDS011;15961;54.678;9.110;2023-07-30T06:37:15;6.95;;;3.28;;
28822;SDS011;15961;54.678;9.110;2023-07-30T06:39:40;13.00;;;3.85;;
28822;SDS011;15961;54.678;9.110;2023-07-30T06:42:05;8.90;;;4.35;;
28822;SDS011;15961;54.678;9.110;2023-07-30T06:44:31;13.02;;;4.28;;
28822;SDS011;15961;54.678;9.110;2023-07-30T06:46:56;13.63;;;4.93;;
28822;SDS011;15961;54.678;9.110;2023-07-30T06:49:21;11.52;;;5.70;;
28822;SDS011;15961;54.678;9.110;2023-07-30T06:51:47;16.80;;;4.43;;
28822;SDS011;15961;54.678;9.110;2023-07-30T06:54:13;12.80;;;4.47;;
28822;SDS011;15961;54.678;9.110;2023-07-30T06:56:38;12.52;;;4.57;;
28822;SDS011;15961;54.678;9.110;2023-07-30T06:59:03;10.65;;;4.90;;
28822;SDS011;15961;54.678;9.110;2023-07-30T07:01:29;13.38;;;4.47;;
28822;SDS011;15961;54.678;9.110;2023-07-30T07:03:54;13.75;;;4.47;;
28822;SDS011;15961;54.678;9.110;2023-07-30T07:06:20;18.23;;;5.90;;
28822;SDS011;15961;54.678;9.110;2023-07-30T07:08:45;13.20;;;5.25;;
28822;SDS011;15961;54.678;9.110;2023-07-30T07:11:10;16.38;;;6.15;;
28822;SDS011;15961;54.678;9.110;2023-07-30T07:13:36;15.40;;;5.32;;
28822;SDS011;15961;54.678;9.110;2023-07-30T07:16:01;16.77;;;6.53;;
28822;SDS011;15961;54.678;9.110;2023-07-30T07:18:26;13.70;;;5.05;;
28822;SDS011;15961;54.678;9.110;2023-07-30T07:20:51;19.58;;;6.20;;
28822;SDS011;15961;54.678;9.110;2023-07-30T07:23:17;13.00;;;4.82;;
28822;SDS011;15961;54.678;9.110;2023-07-30T07:25:43;10.52;;;4.82;;
28822;SDS011;15961;54.678;9.110;2023-07-30T07:28:09;11.55;;;5.20;;
28822;SDS011;15961;54.678;9.110;2023-07-30T07:30:36;14.73;;;4.13;;
28822;SDS011;15961;54.678;9.110;2023-07-30T07:33:02;11.82;;;3.83;;
28822;SDS011;15961;54.678;9.110;2023-07-30T07:35:27;9.82;;;3.38;;
28822;SDS011;15961;54.678;9.110;2023-07-30T07:37:52;11.48;;;4.05;;
28822;SDS011;15961;54.678;9.110;2023-07-30T07:40:17;16.48;;;4.50;;
28822;SDS011;15961;54.678;9.110;2023-07-30T07:42:43;10.35;;;3.72;;
28822;SDS011;15961;54.678;9.110;2023-07-30T07:45:08;11.20;;;3.58;;
28822;SDS011;15961;54.678;9.110;2023-07-30T07:47:34;12.32;;;4.15;;
28822;SDS011;15961;54.678;9.110;2023-07-30T07:49:59;12.50;;;4.00;;
28822;SDS011;15961;54.678;9.110;2023-07-30T07:52:24;10.77;;;4.65;;
28822;SDS011;15961;54.678;9.110;2023-07-30T07:54:50;8.18;;;4.18;;
28822;SDS011;15961;54.678;9.110;2023-07-30T07:57:15;16.45;;;4.65;;
28822;SDS011;15961;54.678;9.110;2023-07-30T07:59:40;24.88;;;5.40;;
28822;SDS011;15961;54.678;9.110;2023-07-30T08:02:09;9.88;;;4.30;;
28822;SDS011;15961;54.678;9.110;2023-07-30T08:04:35;11.00;;;4.60;;
28822;SDS011;15961;54.678;9.110;2023-07-30T08:07:00;13.07;;;4.88;;
28822;SDS011;15961;54.678;9.110;2023-07-30T08:09:28;15.80;;;5.43;;
28822;SDS011;15961;54.678;9.110;2023-07-30T08:11:53;12.77;;;4.72;;
28822;SDS011;15961;54.678;9.110;2023-07-30T08:14:18;15.15;;;5.10;;
28822;SDS011;15961;54.678;9.110;2023-07-30T08:16:44;15.68;;;6.25;;
28822;SDS011;15961;54.678;9.110;2023-07-30T08:19:11;10.63;;;5.10;;
28822;SDS011;15961;54.678;9.110;2023-07-30T08:21:37;14.57;;;4.82;;
28822;SDS011;15961;54.678;9.110;2023-07-30T08:24:02;20.73;;;4.82;;
28822;SDS011;15961;54.678;9.110;2023-07-30T08:26:27;15.60;;;4.60;;
28822;SDS011;15961;54.678;9.110;2023-07-30T08:28:53;10.68;;;4.18;;
28822;SDS011;15961;54.678;9.110;2023-07-30T08:31:18;12.63;;;4.50;;
28822;SDS011;15961;54.678;9.110;2023-07-30T08:33:43;16.33;;;5.35;;
28822;SDS011;15961;54.678;9.110;2023-07-30T08:36:09;8.35;;;4.07;;
28822;SDS011;15961;54.678;9.110;2023-07-30T08:38:34;11.38;;;4.75;;
28822;SDS011;15961;54.678;9.110;2023-07-30T08:40:59;11.85;;;4.57;;
28822;SDS011;15961;54.678;9.110;2023-07-30T08:43:25;14.52;;;5.40;;
28822;SDS011;15961;54.678;9.110;2023-07-30T08:45:50;13.90;;;5.05;;
28822;SDS011;15961;54.678;9.110;2023-07-30T08:48:15;16.95;;;4.22;;
28822;SDS011;15961;54.678;9.110;2023-07-30T08:50:41;14.10;;;4.13;;
28822;SDS011;15961;54.678;9.110;2023-07-30T08:53:14;13.68;;;5.32;;
28822;SDS011;15961;54.678;9.110;2023-07-30T08:55:39;12.38;;;4.25;;
28822;SDS011;15961;54.678;9.110;2023-07-30T08:58:05;11.18;;;4.45;;
28822;SDS011;15961;54.678;9.110;2023-07-30T09:00:31;18.75;;;4.95;;
28822;SDS011;15961;54.678;9.110;2023-07-30T09:02:59;17.73;;;5.60;;
28822;SDS011;15961;54.678;9.110;2023-07-30T09:05:25;16.73;;;4.53;;
28822;SDS011;15961;54.678;9.110;2023-07-30T09:07:54;14.35;;;4.72;;
28822;SDS011;15961;54.678;9.110;2023-07-30T09:10:19;16.27;;;4.43;;
28822;SDS011;15961;54.678;9.110;2023-07-30T09:12:45;15.57;;;5.07;;
28822;SDS011;15961;54.678;9.110;2023-07-30T09:15:10;12.88;;;5.07;;
28822;SDS011;15961;54.678;9.110;2023-07-30T09:17:36;16.50;;;5.10;;
28822;SDS011;15961;54.678;9.110;2023-07-30T09:20:04;16.10;;;4.45;;
28822;SDS011;15961;54.678;9.110;2023-07-30T09:22:31;14.13;;;4.70;;
28822;SDS011;15961;54.678;9.110;2023-07-30T09:25:05;10.32;;;4.50;;
28822;SDS011;15961;54.678;9.110;2023-07-30T09:27:31;12.05;;;4.72;;
28822;SDS011;15961;54.678;9.110;2023-07-30T09:29:57;14.45;;;4.57;;
28822;SDS011;15961;54.678;9.110;2023-07-30T09:32:27;15.60;;;4.63;;
28822;SDS011;15961;54.678;9.110;2023-07-30T09:34:52;12.52;;;4.78;;
28822;SDS011;15961;54.678;9.110;2023-07-30T09:37:18;15.20;;;4.40;;
28822;SDS011;15961;54.678;9.110;2023-07-30T09:39:43;15.68;;;5.18;;
28822;SDS011;15961;54.678;9.110;2023-07-30T09:42:09;16.13;;;5.40;;
28822;SDS011;15961;54.678;9.110;2023-07-30T09:44:35;16.38;;;5.93;;
28822;SDS011;15961;54.678;9.110;2023-07-30T09:47:02;12.98;;;5.47;;
28822;SDS011;15961;54.678;9.110;2023-07-30T09:49:30;16.83;;;5.68;;
28822;SDS011;15961;54.678;9.110;2023-07-30T09:51:56;21.45;;;5.72;;
28822;SDS011;15961;54.678;9.110;2023-07-30T09:54:22;16.95;;;6.65;;
28822;SDS011;15961;54.678;9.110;2023-07-30T09:56:48;13.48;;;5.07;;
28822;SDS011;15961;54.678;9.110;2023-07-30T09:59:16;18.73;;;5.75;;
28822;SDS011;15961;54.678;9.110;2023-07-30T10:01:43;17.00;;;5.78;;
28822;SDS011;15961;54.678;9.110;2023-07-30T10:04:09;16.40;;;5.22;;
28822;SDS011;15961;54.678;9.110;2023-07-30T10:06:36;15.18;;;4.95;;
28822;SDS011;15961;54.678;9.110;2023-07-30T10:09:06;11.35;;;5.82;;
28822;SDS011;15961;54.678;9.110;2023-07-30T10:11:34;20.48;;;5.15;;
28822;SDS011;15961;54.678;9.110;2023-07-30T10:14:01;12.95;;;4.88;;
28822;SDS011;15961;54.678;9.110;2023-07-30T10:16:27;11.90;;;4.78;;
28822;SDS011;15961;54.678;9.110;2023-07-30T10:18:57;14.23;;;5.15;;
28822;SDS011;15961;54.678;9.110;2023-07-30T10:21:23;12.60;;;4.38;;
28822;SDS011;15961;54.678;9.110;2023-07-30T10:24:02;14.65;;;5.25;;
28822;SDS011;15961;54.678;9.110;2023-07-30T10:26:29;11.75;;;3.75;;
28822;SDS011;15961;54.678;9.110;2023-07-30T10:29:11;11.68;;;4.10;;
28822;SDS011;15961;54.678;9.110;2023-07-30T10:31:38;14.70;;;4.28;;
28822;SDS011;15961;54.678;9.110;2023-07-30T10:34:06;13.32;;;4.25;;
28822;SDS011;15961;54.678;9.110;2023-07-30T10:36:34;12.48;;;3.20;;
28822;SDS011;15961;54.678;9.110;2023-07-30T10:41:37;13.63;;;3.42;;
28822;SDS011;15961;54.678;9.110;2023-07-30T10:44:03;9.85;;;3.00;;
28822;SDS011;15961;54.678;9.110;2023-07-30T10:46:28;11.80;;;4.43;;
28822;SDS011;15961;54.678;9.110;2023-07-30T10:48:53;9.63;;;2.72;;
28822;SDS011;15961;54.678;9.110;2023-07-30T10:51:19;11.80;;;3.92;;
28822;SDS011;15961;54.678;9.110;2023-07-30T10:53:49;13.57;;;4.18;;
28822;SDS011;15961;54.678;9.110;2023-07-30T10:56:16;10.75;;;3.20;;
28822;SDS011;15961;54.678;9.110;2023-07-30T10:58:42;10.45;;;3.08;;
28822;SDS011;15961;54.678;9.110;2023-07-30T11:01:09;12.52;;;2.88;;
28822;SDS011;15961;54.678;9.110;2023-07-30T11:03:35;9.05;;;2.88;;
28822;SDS011;15961;54.678;9.110;2023-07-30T11:06:01;10.20;;;2.42;;
28822;SDS011;15961;54.678;9.110;2023-07-30T11:08:42;11.65;;;3.13;;
28822;SDS011;15961;54.678;9.110;2023-07-30T11:11:08;7.25;;;2.92;;
28822;SDS011;15961;54.678;9.110;2023-07-30T11:13:39;13.85;;;3.03;;
28822;SDS011;15961;54.678;9.110;2023-07-30T11:16:06;10.55;;;3.13;;
28822;SDS011;15961;54.678;9.110;2023-07-30T11:18:32;16.48;;;3.75;;
28822;SDS011;15961;54.678;9.110;2023-07-30T11:21:07;17.63;;;3.25;;
28822;SDS011;15961;54.678;9.110;2023-07-30T11:23:33;20.13;;;4.32;;
28822;SDS011;15961;54.678;9.110;2023-07-30T11:26:00;14.38;;;4.35;;
28822;SDS011;15961;54.678;9.110;2023-07-30T11:28:27;15.20;;;5.05;;
28822;SDS011;15961;54.678;9.110;2023-07-30T11:30:57;11.50;;;3.47;;
28822;SDS011;15961;54.678;9.110;2023-07-30T11:33:24;9.32;;;3.33;;
28822;SDS011;15961;54.678;9.110;2023-07-30T11:35:49;13.75;;;4.72;;
28822;SDS011;15961;54.678;9.110;2023-07-30T11:38:15;18.27;;;3.20;;
28822;SDS011;15961;54.678;9.110;2023-07-30T11:40:42;11.35;;;4.50;;
28822;SDS011;15961;54.678;9.110;2023-07-30T11:43:07;12.88;;;3.40;;
28822;SDS011;15961;54.678;9.110;2023-07-30T11:45:32;5.97;;;2.72;;
28822;SDS011;15961;54.678;9.110;2023-07-30T11:48:07;9.13;;;3.65;;
28822;SDS011;15961;54.678;9.110;2023-07-30T11:50:47;9.75;;;3.33;;
28822;SDS011;15961;54.678;9.110;2023-07-30T11:53:13;6.30;;;2.85;;
28822;SDS011;15961;54.678;9.110;2023-07-30T11:55:39;12.80;;;3.13;;
28822;SDS011;15961;54.678;9.110;2023-07-30T11:58:08;6.97;;;2.85;;
28822;SDS011;15961;54.678;9.110;2023-07-30T12:00:36;7.78;;;2.47;;
28822;SDS011;15961;54.678;9.110;2023-07-30T12:03:03;9.38;;;4.18;;
28822;SDS011;15961;54.678;9.110;2023-07-30T12:05:35;9.77;;;3.08;;
28822;SDS011;15961;54.678;9.110;2023-07-30T12:08:05;11.48;;;3.80;;
28822;SDS011;15961;54.678;9.110;2023-07-30T12:10:45;10.70;;;2.63;;
28822;SDS011;15961;54.678;9.110;2023-07-30T12:13:14;9.00;;;2.50;;
28822;SDS011;15961;54.678;9.110;2023-07-30T12:15:52;6.60;;;2.90;;
28822;SDS011;15961;54.678;9.110;2023-07-30T12:18:18;10.00;;;2.20;;
28822;SDS011;15961;54.678;9.110;2023-07-30T12:20:44;13.00;;;2.65;;
28822;SDS011;15961;54.678;9.110;2023-07-30T12:23:09;9.25;;;2.72;;
28822;SDS011;15961;54.678;9.110;2023-07-30T12:25:34;13.82;;;4.82;;
28822;SDS011;15961;54.678;9.110;2023-07-30T12:28:00;16.20;;;2.85;;
28822;SDS011;15961;54.678;9.110;2023-07-30T12:30:25;11.38;;;2.50;;
28822;SDS011;15961;54.678;9.110;2023-07-30T12:32:52;20.33;;;3.65;;
28822;SDS011;15961;54.678;9.110;2023-07-30T12:35:17;13.85;;;2.90;;
28822;SDS011;15961;54.678;9.110;2023-07-30T12:37:43;9.70;;;2.65;;
28822;SDS011;15961;54.678;9.110;2023-07-30T12:40:08;10.50;;;3.28;;
28822;SDS011;15961;54.678;9.110;2023-07-30T12:42:34;10.77;;;2.67;;
28822;SDS011;15961;54.678;9.110;2023-07-30T12:44:59;12.90;;;3.17;;
28822;SDS011;15961;54.678;9.110;2023-07-30T12:47:24;14.50;;;3.28;;
28822;SDS011;15961;54.678;9.110;2023-07-30T12:49:49;18.48;;;3.50;;
28822;SDS011;15961;54.678;9.110;2023-07-30T12:52:15;10.60;;;2.88;;
28822;SDS011;15961;54.678;9.110;2023-07-30T12:54:40;9.23;;;3.03;;
28822;SDS011;15961;54.678;9.110;2023-07-30T12:57:05;10.48;;;3.47;;
28822;SDS011;15961;54.678;9.110;2023-07-30T12:59:33;9.35;;;2.83;;
28822;SDS011;15961;54.678;9.110;2023-07-30T13:02:00;10.63;;;3.05;;
28822;SDS011;15961;54.678;9.110;2023-07-30T13:04:26;8.15;;;3.00;;
28822;SDS011;15961;54.678;9.110;2023-07-30T13:06:54;8.63;;;2.83;;
28822;SDS011;15961;54.678;9.110;2023-07-30T13:09:20;16.23;;;3.17;;
28822;SDS011;15961;54.678;9.110;2023-07-30T13:11:45;13.30;;;3.28;;
28822;SDS011;15961;54.678;9.110;2023-07-30T13:14:11;10.05;;;3.88;;
28822;SDS011;15961;54.678;9.110;2023-07-30T13:16:38;15.40;;;3.30;;
28822;SDS011;15961;54.678;9.110;2023-07-30T13:19:04;11.55;;;2.72;;
28822;SDS011;15961;54.678;9.110;2023-07-30T13:21:29;11.48;;;3.55;;
28822;SDS011;15961;54.678;9.110;2023-07-30T13:23:54;16.35;;;3.60;;
28822;SDS011;15961;54.678;9.110;2023-07-30T13:26:19;10.88;;;3.30;;
28822;SDS011;15961;54.678;9.110;2023-07-30T13:28:45;15.05;;;3.50;;
28822;SDS011;15961;54.678;9.110;2023-07-30T13:31:13;11.18;;;3.25;;
28822;SDS011;15961;54.678;9.110;2023-07-30T13:33:38;9.85;;;3.30;;
28822;SDS011;15961;54.678;9.110;2023-07-30T13:36:04;10.35;;;3.63;;
28822;SDS011;15961;54.678;9.110;2023-07-30T13:38:30;9.82;;;3.22;;
28822;SDS011;15961;54.678;9.110;2023-07-30T13:40:56;13.30;;;3.28;;
28822;SDS011;15961;54.678;9.110;2023-07-30T13:43:21;6.15;;;3.25;;
28822;SDS011;15961;54.678;9.110;2023-07-30T13:45:46;12.70;;;4.05;;
28822;SDS011;15961;54.678;9.110;2023-07-30T13:48:15;14.63;;;5.68;;
28822;SDS011;15961;54.678;9.110;2023-07-30T13:50:40;10.90;;;3.72;;
28822;SDS011;15961;54.678;9.110;2023-07-30T13:53:06;11.10;;;4.57;;
28822;SDS011;15961;54.678;9.110;2023-07-30T13:55:31;6.80;;;2.35;;
28822;SDS011;15961;54.678;9.110;2023-07-30T13:57:56;12.40;;;3.65;;
28822;SDS011;15961;54.678;9.110;2023-07-30T14:00:21;5.88;;;2.55;;
28822;SDS011;15961;54.678;9.110;2023-07-30T14:02:50;5.82;;;3.15;;
28822;SDS011;15961;54.678;9.110;2023-07-30T14:05:15;9.18;;;2.85;;
28822;SDS011;15961;54.678;9.110;2023-07-30T14:07:41;16.17;;;3.60;;
28822;SDS011;15961;54.678;9.110;2023-07-30T14:10:06;13.30;;;3.20;;
28822;SDS011;15961;54.678;9.110;2023-07-30T14:12:32;6.20;;;2.50;;
28822;SDS011;15961;54.678;9.110;2023-07-30T14:14:57;6.78;;;2.75;;
28822;SDS011;15961;54.678;9.110;2023-07-30T14:17:22;11.73;;;3.50;;
28822;SDS011;15961;54.678;9.110;2023-07-30T14:19:48;11.65;;;3.17;;
28822;SDS011;15961;54.678;9.110;2023-07-30T14:22:13;7.22;;;2.70;;
28822;SDS011;15961;54.678;9.110;2023-07-30T14:24:43;7.32;;;3.60;;
28822;SDS011;15961;54.678;9.110;2023-07-30T14:27:09;10.75;;;3.50;;
28822;SDS011;15961;54.678;9.110;2023-07-30T14:29:35;9.55;;;2.90;;
28822;SDS011;15961;54.678;9.110;2023-07-30T14:32:00;10.27;;;3.58;;
28822;SDS011;15961;54.678;9.110;2023-07-30T14:34:25;11.13;;;3.13;;